Terminal Aerodrome Forecast
Issued by NWS Jackson, MS

Home | Current Version | Previous Version | Text Only | Print | Product List | Glossary On
Versions: 1 2 3 4 5 6 7 8 9 10 11 12 13 14 15
000
FTUS44 KJAN 220000 AAA
TAFJAN
TAF AMD
KJAN 220023Z 2200/2224 12010G20KT 1SM +TSRA BR OVC040CB
     FM220100 17003KT P6SM VCTS BKN050CB
     FM220200 00000KT 6SM BR SKC
     FM221300 30004KT P6SM SCT050=

USA.gov is the U.S. government's official web portal to all federal, state and local government web resources and services.